Time;durP1;ratioP1;P1;durP2;ratioP2;P2;SDS_P1;SDS_P2;PMS_P1;PMS_P2;Temp;Humidity;BMP_temperature;BMP_pressure;BME280_temperature;BME280_humidity;BME280_pressure;Samples;Min_cycle;Max_cycle;Signal;HPM_P1;HPM_P2
2021/09/26 00:02:30;;;;;;;7.20;5.23;;;18.50;89.40;;;;;;5093843;28;20627;-66
2021/09/26 00:05:02;;;;;;;7.77;5.03;;;18.50;89.60;;;;;;5092056;28;20526;-66
2021/09/26 00:07:33;;;;;;;7.10;6.40;;;18.50;89.50;;;;;;5095504;28;20435;-66
2021/09/26 00:10:00;;;;;;;7.47;5.60;;;18.40;90.00;;;;;;5105832;28;20659;-64
2021/09/26 00:12:30;;;;;;;6.73;4.93;;;18.40;89.80;;;;;;5112476;28;20834;-66
2021/09/26 00:15:05;;;;;;;7.10;5.00;;;18.40;89.60;;;;;;5112211;28;20435;-66
2021/09/26 00:17:39;;;;;;;6.83;5.90;;;18.40;89.20;;;;;;5108458;28;20522;-65
2021/09/26 00:20:16;;;;;;;9.37;5.60;;;18.40;89.00;;;;;;5111390;28;20517;-66
2021/09/26 00:22:48;;;;;;;5.60;4.97;;;18.50;88.90;;;;;;5112264;28;20477;-65
2021/09/26 00:25:18;;;;;;;5.97;5.33;;;18.50;89.10;;;;;;5111549;28;20513;-65
2021/09/26 00:27:45;;;;;;;5.93;5.30;;;18.60;89.30;;;;;;5111940;28;20503;-66
2021/09/26 00:30:17;;;;;;;5.93;5.17;;;18.60;89.50;;;;;;5091800;28;20498;-65
2021/09/26 00:32:47;;;;;;;15.67;4.90;;;18.60;89.60;;;;;;5108637;28;20446;-64
2021/09/26 00:35:18;;;;;;;6.00;4.33;;;18.60;89.80;;;;;;5112609;28;20434;-67
2021/09/26 00:37:47;;;;;;;5.77;4.47;;;18.60;89.60;;;;;;5114993;28;20500;-67
2021/09/26 00:40:47;;;;;;;5.43;4.20;;;18.60;89.50;;;;;;5115949;28;20983;-66
2021/09/26 00:43:17;;;;;;;6.23;5.07;;;18.60;90.00;;;;;;5095088;28;20489;-65
2021/09/26 00:45:50;;;;;;;8.13;5.30;;;18.60;90.00;;;;;;5095906;28;20442;-65
2021/09/26 00:48:19;;;;;;;5.57;4.27;;;18.60;89.60;;;;;;5115156;28;20426;-65
2021/09/26 00:50:48;;;;;;;5.67;5.07;;;18.70;89.30;;;;;;5115976;28;20430;-66
2021/09/26 00:53:20;;;;;;;6.40;3.93;;;18.70;89.40;;;;;;5115256;28;20433;-65
2021/09/26 00:55:59;;;;;;;6.40;4.93;;;18.70;89.30;;;;;;5115964;28;20491;-65
2021/09/26 00:58:32;;;;;;;9.40;5.07;;;18.60;89.50;;;;;;5104739;28;20485;-65
2021/09/26 01:01:10;;;;;;;5.23;4.27;;;18.60;90.00;;;;;;5116000;28;20445;-66
2021/09/26 01:03:39;;;;;;;7.47;5.40;;;18.60;89.80;;;;;;5095478;28;20865;-65
2021/09/26 01:06:20;;;;;;;5.73;4.70;;;18.60;89.60;;;;;;5095416;28;20500;-65
2021/09/26 01:08:58;;;;;;;6.53;5.20;;;18.70;89.50;;;;;;5095260;28;20470;-66
2021/09/26 01:11:39;;;;;;;6.60;3.93;;;18.70;89.40;;;;;;5105916;28;20470;-65
2021/09/26 01:14:21;;;;;;;6.30;5.00;;;18.70;89.70;;;;;;5115292;28;20804;-64
2021/09/26 01:17:01;;;;;;;8.57;4.40;;;18.70;89.50;;;;;;5115114;28;20520;-65
2021/09/26 01:19:58;;;;;;;5.73;4.50;;;18.70;89.70;;;;;;5115252;28;20500;-66
2021/09/26 01:22:52;;;;;;;5.90;4.90;;;18.60;89.70;;;;;;5115047;28;20501;-64
2021/09/26 01:25:52;;;;;;;5.37;4.60;;;18.60;89.90;;;;;;5115397;28;20506;-67
2021/09/26 01:28:41;;;;;;;8.93;5.83;;;18.60;90.00;;;;;;5115377;28;20434;-65
2021/09/26 01:31:13;;;;;;;6.13;4.70;;;18.50;90.00;;;;;;5114432;28;20502;-64
2021/09/26 01:33:43;;;;;;;10.03;4.90;;;18.50;90.00;;;;;;5114535;28;20438;-66
2021/09/26 01:36:25;;;;;;;6.13;4.77;;;18.50;90.10;;;;;;5114527;28;20528;-65
2021/09/26 01:39:03;;;;;;;7.20;4.80;;;18.50;90.10;;;;;;5114623;28;20477;-65
2021/09/26 01:41:41;;;;;;;5.43;4.37;;;18.50;90.10;;;;;;5115012;28;20434;-65
2021/09/26 01:44:14;;;;;;;7.27;5.70;;;18.40;90.10;;;;;;5114690;28;20503;-65
2021/09/26 01:46:54;;;;;;;14.43;5.87;;;18.30;90.10;;;;;;5114698;28;20810;-65
2021/09/26 01:49:28;;;;;;;6.67;4.97;;;18.30;90.20;;;;;;5114670;28;20434;-65
2021/09/26 01:52:09;;;;;;;6.60;4.53;;;18.30;90.20;;;;;;5114951;28;20438;-66
2021/09/26 01:54:37;;;;;;;6.37;5.17;;;18.20;90.30;;;;;;5114171;28;20442;-69
2021/09/26 01:57:20;;;;;;;7.93;5.30;;;18.20;90.30;;;;;;5114492;28;20435;-65
2021/09/26 01:59:50;;;;;;;4.73;4.17;;;18.10;90.40;;;;;;5114381;28;20512;-65
2021/09/26 02:02:20;;;;;;;5.03;4.40;;;18.10;90.50;;;;;;5114551;28;20473;-65
2021/09/26 02:04:50;;;;;;;9.00;5.97;;;18.00;90.60;;;;;;5114320;28;20508;-65
2021/09/26 02:07:20;;;;;;;5.87;4.30;;;18.00;90.90;;;;;;5114611;28;20916;-65
2021/09/26 02:09:52;;;;;;;5.70;5.07;;;18.00;91.00;;;;;;5114192;28;20981;-65
2021/09/26 02:12:25;;;;;;;8.20;4.43;;;17.90;91.10;;;;;;5114557;28;20438;-65
2021/09/26 02:14:56;;;;;;;6.20;4.27;;;17.90;91.20;;;;;;5113880;28;20438;-65
2021/09/26 02:17:27;;;;;;;8.17;4.87;;;17.90;91.30;;;;;;5114562;28;20434;-65
2021/09/26 02:20:02;;;;;;;8.10;4.80;;;17.90;91.10;;;;;;5114137;28;20572;-65
2021/09/26 02:22:33;;;;;;;6.17;3.97;;;17.90;91.30;;;;;;5114552;28;20455;-64
2021/09/26 02:25:08;;;;;;;5.23;4.70;;;17.90;91.10;;;;;;5113821;28;20430;-65
2021/09/26 02:27:49;;;;;;;6.40;5.40;;;17.90;91.30;;;;;;5113987;28;20438;-65
2021/09/26 02:30:19;;;;;;;9.13;4.50;;;17.80;91.60;;;;;;5114144;28;20484;-65
2021/09/26 02:32:50;;;;;;;6.37;4.40;;;17.80;91.50;;;;;;5113622;28;20446;-65
2021/09/26 02:35:23;;;;;;;6.73;4.20;;;17.90;91.50;;;;;;5113881;28;20981;-66
2021/09/26 02:37:53;;;;;;;6.17;4.67;;;18.00;91.40;;;;;;5113671;28;20469;-65
2021/09/26 02:40:22;;;;;;;5.67;4.97;;;18.00;91.30;;;;;;5113971;28;20796;-66
2021/09/26 02:43:03;;;;;;;5.27;4.30;;;18.00;91.20;;;;;;5113490;28;20842;-66
2021/09/26 02:45:43;;;;;;;7.20;4.40;;;18.00;91.20;;;;;;5113584;28;20480;-65
2021/09/26 02:48:16;;;;;;;7.80;5.07;;;18.00;91.10;;;;;;5104577;28;20951;-65
2021/09/26 02:50:51;;;;;;;6.80;5.10;;;18.10;91.00;;;;;;5113365;28;20543;-65
2021/09/26 02:53:19;;;;;;;6.83;4.57;;;18.00;90.90;;;;;;5113739;28;20434;-65
2021/09/26 02:55:51;;;;;;;10.83;5.53;;;18.00;90.90;;;;;;5112983;28;20438;-64
2021/09/26 02:58:23;;;;;;;8.33;5.40;;;18.00;90.90;;;;;;5112814;28;20481;-65
2021/09/26 03:01:00;;;;;;;16.03;9.40;;;18.00;91.00;;;;;;5113085;28;20434;-65
2021/09/26 03:03:29;;;;;;;16.73;9.60;;;18.00;91.10;;;;;;5113845;28;20490;-66
2021/09/26 03:05:59;;;;;;;13.57;8.73;;;17.90;91.00;;;;;;5113187;28;20441;-66
2021/09/26 03:08:30;;;;;;;11.13;8.40;;;17.80;91.10;;;;;;5113287;28;20442;-66
2021/09/26 03:11:00;;;;;;;12.90;7.20;;;17.80;91.10;;;;;;5113353;28;20430;-65
2021/09/26 03:13:30;;;;;;;15.17;8.00;;;17.80;91.10;;;;;;5113030;28;20430;-65
2021/09/26 03:15:59;;;;;;;7.83;6.17;;;17.80;91.20;;;;;;5113601;28;20487;-66
2021/09/26 03:18:29;;;;;;;6.60;5.57;;;17.70;91.10;;;;;;5112962;28;20545;-65
2021/09/26 03:21:01;;;;;;;6.80;4.00;;;17.70;91.00;;;;;;5113410;28;20485;-65
2021/09/26 03:23:34;;;;;;;5.30;3.90;;;17.70;91.00;;;;;;5112690;28;20430;-65
2021/09/26 03:26:21;;;;;;;4.80;3.60;;;17.60;90.80;;;;;;5113277;28;20501;-65
2021/09/26 03:28:50;;;;;;;4.10;3.23;;;17.70;90.40;;;;;;5107990;28;20969;-65
2021/09/26 03:31:19;;;;;;;4.70;3.70;;;17.60;90.30;;;;;;5113327;28;20438;-66
2021/09/26 03:33:48;;;;;;;4.40;2.80;;;17.50;90.10;;;;;;5112605;28;20533;-65
2021/09/26 03:36:30;;;;;;;4.87;3.10;;;17.50;90.00;;;;;;5113050;28;20445;-66
2021/09/26 03:38:59;;;;;;;4.90;2.83;;;17.50;90.00;;;;;;5071919;28;20515;-66
2021/09/26 03:41:35;;;;;;;4.40;3.30;;;17.40;90.00;;;;;;5072651;28;20427;-64
2021/09/26 03:44:08;;;;;;;4.70;3.70;;;17.40;90.10;;;;;;5071826;28;20443;-65
2021/09/26 03:46:40;;;;;;;5.33;3.27;;;17.40;90.00;;;;;;5072288;28;20443;-66
2021/09/26 03:49:10;;;;;;;7.50;3.33;;;17.40;90.00;;;;;;5071957;28;20439;-64
2021/09/26 03:51:39;;;;;;;5.53;4.13;;;17.50;90.00;;;;;;5072427;28;20851;-65
2021/09/26 03:54:10;;;;;;;4.00;3.23;;;17.40;89.80;;;;;;5072012;28;20444;-65
2021/09/26 03:56:38;;;;;;;5.00;3.20;;;17.40;89.70;;;;;;5072269;28;20436;-65
2021/09/26 03:59:11;;;;;;;4.33;2.80;;;17.40;89.60;;;;;;5071551;28;20479;-64
2021/09/26 04:01:42;;;;;;;4.20;3.77;;;17.40;89.70;;;;;;5072451;28;20801;-64
2021/09/26 04:04:18;;;;;;;6.57;3.30;;;17.40;90.00;;;;;;5072245;28;20436;-66
2021/09/26 04:06:48;;;;;;;7.23;3.70;;;17.40;89.80;;;;;;5072054;28;20443;-66
2021/09/26 04:09:29;;;;;;;5.00;3.20;;;17.40;89.60;;;;;;5072090;28;20446;-66
2021/09/26 04:12:06;;;;;;;4.90;3.10;;;17.40;89.30;;;;;;5076525;28;20946;-65
2021/09/26 04:14:38;;;;;;;5.70;3.53;;;17.40;88.50;;;;;;5075978;28;20523;-65
2021/09/26 04:17:12;;;;;;;5.17;3.10;;;17.40;88.60;;;;;;5076447;28;20431;-65
2021/09/26 04:19:44;;;;;;;5.63;3.40;;;17.40;88.50;;;;;;5075946;28;20909;-65
2021/09/26 04:22:16;;;;;;;4.80;3.10;;;17.40;88.80;;;;;;5076277;28;20436;-65
2021/09/26 04:24:48;;;;;;;6.90;2.90;;;17.40;88.90;;;;;;5075712;28;20436;-65
2021/09/26 04:27:18;;;;;;;4.00;3.13;;;17.40;88.80;;;;;;5076292;28;20798;-65
2021/09/26 04:29:52;;;;;;;4.47;2.70;;;17.40;88.60;;;;;;5075829;28;20432;-65
2021/09/26 04:32:24;;;;;;;4.03;2.70;;;17.40;88.30;;;;;;5076173;28;20839;-65
2021/09/26 04:34:53;;;;;;;5.43;3.43;;;17.40;88.00;;;;;;5075613;28;20937;-66
2021/09/26 04:37:23;;;;;;;4.53;2.80;;;17.40;88.00;;;;;;5091538;28;20477;-65
2021/09/26 04:39:58;;;;;;;5.60;3.00;;;17.40;88.20;;;;;;5116015;28;20485;-65
2021/09/26 04:42:26;;;;;;;5.43;3.03;;;17.40;87.70;;;;;;5116747;28;20441;-65
2021/09/26 04:44:59;;;;;;;8.07;3.17;;;17.40;88.00;;;;;;5116087;28;20430;-65
2021/09/26 04:47:28;;;;;;;4.30;3.50;;;17.40;88.50;;;;;;5116586;28;20785;-66
2021/09/26 04:50:01;;;;;;;5.03;3.80;;;17.40;89.10;;;;;;5115918;28;20430;-65
2021/09/26 04:52:29;;;;;;;6.63;3.67;;;17.40;89.30;;;;;;5116685;28;20426;-65
2021/09/26 04:55:01;;;;;;;4.93;4.20;;;17.40;89.50;;;;;;5116077;28;20434;-65
2021/09/26 04:57:30;;;;;;;7.63;4.20;;;17.40;89.80;;;;;;5116335;28;20430;-67
2021/09/26 05:00:08;;;;;;;7.33;4.80;;;17.40;89.60;;;;;;5115683;28;20477;-65
2021/09/26 05:02:35;;;;;;;6.87;3.60;;;17.40;89.70;;;;;;5116014;28;20936;-65
2021/09/26 05:05:04;;;;;;;5.57;3.33;;;17.40;89.00;;;;;;5115610;28;20495;-65
2021/09/26 05:07:42;;;;;;;6.93;3.83;;;17.40;89.20;;;;;;5116163;28;20887;-65
2021/09/26 05:10:21;;;;;;;4.50;3.90;;;17.40;89.20;;;;;;5115190;28;20873;-65
2021/09/26 05:12:55;;;;;;;4.83;3.93;;;17.40;89.00;;;;;;5116140;28;20440;-65
2021/09/26 05:15:26;;;;;;;4.80;3.90;;;17.30;89.30;;;;;;5115497;28;20508;-65
2021/09/26 05:17:56;;;;;;;6.33;3.90;;;17.30;89.00;;;;;;5116214;28;20446;-65
2021/09/26 05:20:25;;;;;;;4.60;3.17;;;17.20;89.20;;;;;;5115452;28;20500;-65
2021/09/26 05:23:21;;;;;;;7.03;3.60;;;17.20;89.30;;;;;;5114970;28;20496;-65
2021/09/26 05:25:53;;;;;;;4.70;3.73;;;17.10;89.40;;;;;;5095251;28;20805;-65
2021/09/26 05:28:22;;;;;;;5.03;3.80;;;17.10;89.70;;;;;;5095246;28;20458;-65
2021/09/26 05:30:51;;;;;;;6.53;3.50;;;17.00;89.90;;;;;;5115594;28;20473;-65
2021/09/26 05:33:18;;;;;;;6.70;3.17;;;17.00;90.00;;;;;;5115576;28;20500;-65
2021/09/26 05:35:53;;;;;;;4.67;3.00;;;17.10;90.10;;;;;;5115498;28;20438;-65
2021/09/26 05:38:28;;;;;;;6.43;3.33;;;17.10;90.10;;;;;;5115093;28;21389;-65
2021/09/26 05:40:58;;;;;;;4.70;3.33;;;17.00;90.30;;;;;;5114473;28;20999;-65
2021/09/26 05:43:27;;;;;;;14.50;9.07;;;17.00;90.40;;;;;;5114975;28;20932;-66
2021/09/26 05:45:57;;;;;;;13.87;8.33;;;17.10;90.50;;;;;;5115725;28;20429;-65
2021/09/26 05:48:27;;;;;;;9.07;5.60;;;17.10;90.40;;;;;;5115026;28;20444;-65
2021/09/26 05:50:58;;;;;;;4.50;3.83;;;17.20;90.70;;;;;;5115016;28;20495;-65
2021/09/26 05:53:29;;;;;;;4.97;3.30;;;17.20;90.40;;;;;;5115221;28;20452;-65
2021/09/26 05:55:56;;;;;;;5.63;3.50;;;17.30;90.20;;;;;;5115074;28;20438;-65
2021/09/26 05:58:26;;;;;;;3.70;3.30;;;17.30;90.10;;;;;;5114799;28;20826;-66
2021/09/26 06:00:55;;;;;;;4.33;3.60;;;17.50;90.00;;;;;;5115256;28;21003;-65
2021/09/26 06:03:26;;;;;;;5.50;4.27;;;17.60;90.00;;;;;;5114918;28;20445;-69
2021/09/26 06:05:55;;;;;;;6.40;3.60;;;17.80;90.20;;;;;;5115084;28;20439;-66
2021/09/26 06:08:27;;;;;;;8.00;4.30;;;17.90;90.00;;;;;;5114857;28;20905;-65
2021/09/26 06:11:01;;;;;;;10.60;6.17;;;18.10;90.30;;;;;;5101319;28;20521;-65
2021/09/26 06:13:34;;;;;;;10.37;4.67;;;18.30;90.00;;;;;;5114724;28;20506;-66
2021/09/26 06:16:03;;;;;;;5.60;4.40;;;18.40;89.60;;;;;;5094678;28;20462;-66
2021/09/26 06:18:43;;;;;;;5.77;3.30;;;18.50;89.00;;;;;;5094292;28;20438;-66
2021/09/26 06:21:19;;;;;;;6.03;4.33;;;18.60;87.80;;;;;;5094243;28;20475;-65
2021/09/26 06:23:49;;;;;;;6.67;4.00;;;18.60;87.20;;;;;;5095109;28;20776;-66
2021/09/26 06:26:26;;;;;;;7.10;4.00;;;18.70;86.00;;;;;;5114627;28;20488;-65
2021/09/26 06:28:54;;;;;;;4.47;3.07;;;18.80;86.30;;;;;;5114488;28;20433;-65
2021/09/26 06:31:29;;;;;;;4.63;3.40;;;18.90;86.70;;;;;;5114598;28;20431;-66
2021/09/26 06:34:08;;;;;;;7.60;3.27;;;19.00;86.50;;;;;;5114141;28;20483;-65
2021/09/26 06:36:36;;;;;;;4.93;3.83;;;19.10;86.30;;;;;;5093970;28;20431;-66
2021/09/26 06:39:05;;;;;;;9.70;7.03;;;19.20;85.90;;;;;;5112886;28;20480;-65
2021/09/26 06:41:37;;;;;;;5.60;4.03;;;19.30;85.50;;;;;;5113760;28;20430;-65
2021/09/26 06:44:05;;;;;;;14.90;10.83;;;19.50;85.20;;;;;;5114027;28;20430;-65
2021/09/26 06:46:33;;;;;;;6.03;4.40;;;19.70;83.90;;;;;;5113636;28;20499;-66
2021/09/26 06:49:02;;;;;;;4.60;3.40;;;19.90;83.10;;;;;;5113966;28;20437;-66
2021/09/26 06:51:31;;;;;;;4.83;3.20;;;20.20;80.50;;;;;;5113829;28;20434;-66
2021/09/26 06:54:04;;;;;;;6.70;3.70;;;20.50;77.40;;;;;;5113979;28;20441;-66
2021/09/26 06:56:33;;;;;;;6.53;3.33;;;20.80;75.60;;;;;;5113418;28;20920;-65
2021/09/26 06:59:00;;;;;;;10.90;3.10;;;21.10;75.20;;;;;;5113778;28;20525;-66
2021/09/26 07:01:33;;;;;;;6.93;2.90;;;21.60;75.90;;;;;;5113353;28;20512;-66
2021/09/26 07:04:03;;;;;;;10.90;3.53;;;22.10;74.50;;;;;;5093620;28;20435;-66
2021/09/26 07:06:33;;;;;;;5.27;2.57;;;22.60;72.10;;;;;;5092152;28;20911;-66
2021/09/26 07:09:02;;;;;;;4.47;2.87;;;23.30;71.10;;;;;;5092955;28;20514;-65
2021/09/26 07:11:34;;;;;;;4.43;2.83;;;23.90;67.60;;;;;;5106414;28;20442;-66
2021/09/26 07:14:06;;;;;;;7.30;2.43;;;24.60;63.00;;;;;;5108319;28;20488;-66
2021/09/26 07:16:39;;;;;;;3.40;2.30;;;25.30;61.40;;;;;;5110288;28;20978;-66
2021/09/26 07:19:15;;;;;;;5.00;2.20;;;26.00;58.70;;;;;;5092776;28;20517;-67
2021/09/26 07:21:50;;;;;;;6.57;2.10;;;27.00;54.70;;;;;;5092712;28;20529;-67
2021/09/26 07:24:23;;;;;;;3.60;2.23;;;28.30;49.50;;;;;;5092466;28;20427;-66
2021/09/26 07:26:55;;;;;;;5.20;1.90;;;29.80;46.40;;;;;;5093001;28;20487;-67
2021/09/26 07:29:22;;;;;;;5.77;3.67;;;31.20;44.40;;;;;;5106341;28;20525;-66
2021/09/26 07:31:56;;;;;;;9.90;3.03;;;32.00;41.60;;;;;;5109975;28;20434;-66
2021/09/26 07:34:29;;;;;;;6.40;3.13;;;33.00;39.30;;;;;;5091407;28;20442;-67
2021/09/26 07:37:05;;;;;;;7.00;4.17;;;34.20;35.70;;;;;;5098887;28;20809;-66
2021/09/26 07:39:40;;;;;;;6.23;2.37;;;35.30;35.60;;;;;;5097158;28;20434;-66
2021/09/26 07:42:17;;;;;;;7.47;2.53;;;36.50;32.10;;;;;;5110042;28;20442;-66
2021/09/26 07:44:45;;;;;;;4.90;2.73;;;37.60;30.90;;;;;;5110123;28;20859;-66
2021/09/26 07:47:17;;;;;;;7.83;2.80;;;38.70;28.60;;;;;;5105102;28;21004;-66
2021/09/26 07:49:50;;;;;;;8.33;2.80;;;39.70;27.70;;;;;;5109071;28;20558;-66
2021/09/26 07:52:19;;;;;;;5.73;2.50;;;40.70;25.70;;;;;;5109509;28;20446;-67
2021/09/26 07:54:55;;;;;;;3.17;2.30;;;41.50;24.80;;;;;;5092174;28;20475;-66
2021/09/26 07:57:26;;;;;;;6.40;2.07;;;42.10;23.60;;;;;;5104420;28;20470;-67
2021/09/26 07:59:53;;;;;;;8.27;2.80;;;42.70;22.50;;;;;;5105613;28;20478;-66
2021/09/26 08:02:23;;;;;;;4.50;2.30;;;43.10;21.00;;;;;;5109982;28;20438;-66
2021/09/26 08:04:55;;;;;;;5.13;2.20;;;43.60;20.50;;;;;;5110226;28;20474;-67
2021/09/26 08:07:29;;;;;;;7.60;2.30;;;44.10;20.20;;;;;;5104909;28;20928;-66
2021/09/26 08:09:58;;;;;;;3.70;2.33;;;44.50;20.40;;;;;;5110183;28;20773;-66
2021/09/26 08:12:41;;;;;;;4.17;2.70;;;44.80;19.80;;;;;;5109400;28;20434;-67
2021/09/26 08:15:12;;;;;;;4.00;2.50;;;45.30;19.60;;;;;;5110538;28;20435;-66
2021/09/26 08:17:44;;;;;;;7.53;2.90;;;46.00;19.60;;;;;;5109403;28;20446;-68
2021/09/26 08:20:13;;;;;;;4.33;1.93;;;46.50;18.80;;;;;;5110093;28;20971;-67
2021/09/26 08:22:40;;;;;;;3.60;2.13;;;47.00;18.90;;;;;;5110003;28;20438;-66
2021/09/26 08:25:10;;;;;;;4.80;2.60;;;47.70;17.50;;;;;;5109449;28;20438;-68
2021/09/26 08:27:42;;;;;;;4.60;2.50;;;48.20;17.40;;;;;;5100039;28;20477;-66
2021/09/26 08:30:13;;;;;;;4.73;2.43;;;48.80;15.80;;;;;;5109717;28;20863;-66
2021/09/26 08:32:40;;;;;;;4.00;3.07;;;49.20;16.40;;;;;;5109904;28;20520;-67
2021/09/26 08:35:08;;;;;;;6.97;3.27;;;49.50;15.50;;;;;;5110254;28;20434;-66
2021/09/26 08:37:36;;;;;;;6.93;2.50;;;49.80;16.00;;;;;;5109645;28;20540;-67
2021/09/26 08:40:04;;;;;;;4.10;2.20;;;50.10;15.30;;;;;;5093115;28;20470;-66
2021/09/26 08:42:33;;;;;;;3.07;2.47;;;50.60;14.80;;;;;;5092229;28;20442;-67
2021/09/26 08:45:02;;;;;;;5.07;2.60;;;50.90;14.50;;;;;;5102848;28;22009;-67
2021/09/26 08:47:33;;;;;;;5.63;3.23;;;51.10;14.20;;;;;;5106644;28;20526;-67
2021/09/26 08:50:01;;;;;;;6.57;2.90;;;51.40;13.70;;;;;;5106001;28;20444;-67
2021/09/26 08:52:30;;;;;;;8.40;2.50;;;51.70;14.00;;;;;;5110105;28;20788;-68
2021/09/26 08:54:56;;;;;;;5.20;2.40;;;51.60;14.70;;;;;;5110214;28;20533;-68
2021/09/26 08:57:24;;;;;;;2.70;2.37;;;52.10;13.80;;;;;;5111285;28;21007;-69
2021/09/26 08:59:52;;;;;;;8.23;2.80;;;52.50;13.70;;;;;;5113682;28;20430;-67
2021/09/26 09:02:19;;;;;;;3.87;2.07;;;53.10;13.00;;;;;;5113386;28;21778;-67
2021/09/26 09:04:46;;;;;;;5.73;2.90;;;53.80;13.10;;;;;;5113523;28;20838;-67
2021/09/26 09:07:13;;;;;;;4.53;2.57;;;54.20;13.30;;;;;;5111694;28;20438;-67
2021/09/26 09:09:59;;;;;;;6.00;2.60;;;53.40;12.20;;;;;;5113781;28;21011;-67
2021/09/26 09:12:27;;;;;;;4.43;2.73;;;51.40;12.90;;;;;;5112192;28;20908;-67
2021/09/26 09:15:00;;;;;;;3.60;2.30;;;49.80;13.60;;;;;;5113475;28;20521;-66
2021/09/26 09:17:29;;;;;;;6.03;2.87;;;48.20;14.90;;;;;;5104711;28;20535;-67
2021/09/26 09:20:15;;;;;;;5.57;2.63;;;48.00;16.40;;;;;;5099422;28;20526;-67
2021/09/26 09:22:45;;;;;;;4.33;2.63;;;49.30;15.70;;;;;;5099526;28;20496;-68
2021/09/26 09:25:33;;;;;;;4.70;2.47;;;50.60;15.50;;;;;;5095461;28;20431;-67
2021/09/26 09:28:01;;;;;;;6.97;3.00;;;51.70;14.90;;;;;;5099375;28;20527;-67
2021/09/26 09:30:31;;;;;;;3.83;2.53;;;52.30;13.50;;;;;;5095336;28;20554;-67
2021/09/26 09:32:59;;;;;;;4.37;2.43;;;51.50;13.30;;;;;;5095540;28;20952;-68
2021/09/26 09:35:28;;;;;;;6.50;2.43;;;51.20;14.40;;;;;;5111438;28;20484;-68
2021/09/26 09:37:56;;;;;;;5.70;2.93;;;50.70;13.70;;;;;;5107479;28;20458;-68
2021/09/26 09:40:23;;;;;;;5.10;4.50;;;48.90;13.80;;;;;;5104512;28;20431;-69
2021/09/26 09:42:52;;;;;;;5.13;2.90;;;46.80;14.70;;;;;;5096787;28;20550;-66
2021/09/26 09:45:24;;;;;;;5.13;2.90;;;44.60;16.20;;;;;;5110599;28;20517;-66
2021/09/26 09:48:11;;;;;;;7.00;2.33;;;42.70;17.90;;;;;;5101028;28;20431;-65
2021/09/26 09:50:49;;;;;;;6.80;2.90;;;40.80;19.90;;;;;;5098254;28;20582;-66
2021/09/26 09:53:33;;;;;;;6.40;2.50;;;39.20;21.30;;;;;;5093955;28;20431;-67
2021/09/26 09:56:07;;;;;;;6.63;3.47;;;37.80;22.80;;;;;;5111552;28;20457;-67
2021/09/26 09:58:37;;;;;;;4.50;2.43;;;36.60;23.40;;;;;;5097857;28;20463;-66
2021/09/26 10:01:06;;;;;;;11.77;3.10;;;35.60;24.40;;;;;;5110117;28;20450;-67
2021/09/26 10:03:37;;;;;;;3.53;2.33;;;34.80;25.80;;;;;;5112557;28;20442;-67
2021/09/26 10:06:13;;;;;;;3.60;2.30;;;34.30;26.90;;;;;;5091846;28;20439;-69
2021/09/26 10:08:40;;;;;;;4.90;2.63;;;34.20;27.40;;;;;;5092514;28;20522;-66
2021/09/26 10:11:09;;;;;;;5.23;2.40;;;33.70;26.70;;;;;;5096082;28;20486;-68
2021/09/26 10:13:37;;;;;;;5.23;2.10;;;33.10;27.70;;;;;;5093294;28;20810;-67
2021/09/26 10:16:08;;;;;;;5.60;2.60;;;32.60;29.40;;;;;;5094137;28;20475;-67
2021/09/26 10:18:42;;;;;;;11.00;3.10;;;32.40;29.60;;;;;;5106595;28;20517;-66
2021/09/26 10:21:10;;;;;;;7.53;3.30;;;33.10;29.30;;;;;;5096712;28;20441;-67
2021/09/26 10:23:43;;;;;;;5.43;2.73;;;33.30;29.00;;;;;;5094634;28;20445;-66
2021/09/26 10:26:19;;;;;;;5.03;2.40;;;33.20;29.00;;;;;;5111023;28;20804;-67
2021/09/26 10:28:51;;;;;;;4.80;2.07;;;33.20;29.10;;;;;;5110981;28;20925;-66
2021/09/26 10:31:25;;;;;;;5.73;2.47;;;33.20;29.70;;;;;;5110666;28;20561;-68
2021/09/26 10:34:01;;;;;;;4.73;2.30;;;33.50;30.50;;;;;;5093922;28;20745;-66
2021/09/26 10:36:29;;;;;;;5.47;2.60;;;34.10;29.70;;;;;;5093114;28;20439;-67
2021/09/26 10:39:08;;;;;;;4.30;2.30;;;34.70;30.00;;;;;;5106744;28;20438;-66
2021/09/26 10:42:07;;;;;;;3.63;3.00;;;37.30;29.80;;;;;;5095542;28;20438;-67
2021/09/26 10:44:38;;;;;;;10.10;4.97;;;40.60;25.50;;;;;;5093269;28;20431;-67
2021/09/26 10:47:19;;;;;;;12.03;10.60;;;43.40;22.50;;;;;;5093872;28;20519;-67
2021/09/26 10:49:49;;;;;;;5.57;2.17;;;45.60;20.60;;;;;;5093059;28;20484;-68
2021/09/26 10:52:29;;;;;;;4.37;2.63;;;47.70;18.70;;;;;;5092867;28;20482;-67
2021/09/26 10:55:29;;;;;;;9.13;3.10;;;49.50;17.00;;;;;;5093095;28;20446;-67
2021/09/26 10:58:13;;;;;;;5.50;2.10;;;51.20;16.20;;;;;;5106465;28;20473;-67
2021/09/26 11:00:49;;;;;;;4.80;2.57;;;53.00;13.80;;;;;;5096039;28;20443;-69
2021/09/26 11:03:19;;;;;;;6.40;2.40;;;53.90;13.60;;;;;;5098318;28;20466;-68
2021/09/26 11:05:49;;;;;;;3.50;2.37;;;54.80;12.90;;;;;;5109777;28;20454;-67
2021/09/26 11:08:44;;;;;;;3.77;2.20;;;55.50;12.90;;;;;;5096626;28;20837;-68
2021/09/26 11:11:36;;;;;;;6.10;1.93;;;56.10;11.50;;;;;;5100684;28;20502;-67
2021/09/26 11:14:10;;;;;;;5.23;2.63;;;56.40;10.80;;;;;;5092882;28;20915;-69
2021/09/26 11:16:53;;;;;;;3.70;2.20;;;55.40;10.90;;;;;;5096113;28;20543;-67
2021/09/26 11:19:22;;;;;;;6.03;2.50;;;55.40;11.70;;;;;;5096708;28;20517;-67
2021/09/26 11:22:05;;;;;;;9.17;2.70;;;55.70;11.40;;;;;;5108123;28;20434;-67
2021/09/26 11:24:57;;;;;;;5.00;2.30;;;54.70;11.60;;;;;;5109559;28;20437;-69
2021/09/26 11:27:39;;;;;;;6.93;2.43;;;53.30;11.70;;;;;;5106675;28;20541;-67
2021/09/26 11:30:39;;;;;;;;;;;;;;;;;;;;;
2021/09/26 11:33:08;;;;;;;4.77;2.27;;;48.00;13.20;;;;;;5095497;28;20955;-67
2021/09/26 11:35:38;;;;;;;3.93;2.10;;;45.80;14.90;;;;;;5091751;28;20431;-66
2021/09/26 11:38:13;;;;;;;4.13;2.00;;;44.50;16.50;;;;;;5091687;28;20471;-67
2021/09/26 11:41:07;;;;;;;5.60;2.30;;;44.30;17.90;;;;;;5094059;28;20438;-66
2021/09/26 11:43:38;;;;;;;5.73;2.23;;;44.60;17.10;;;;;;5110177;28;20798;-67
2021/09/26 11:46:26;;;;;;;3.93;2.43;;;44.70;17.50;;;;;;5109679;28;20441;-67
2021/09/26 11:48:57;;;;;;;5.63;2.37;;;45.70;17.60;;;;;;5099031;28;20438;-66
2021/09/26 11:51:25;;;;;;;5.43;2.10;;;46.70;16.70;;;;;;5109126;28;20477;-66
2021/09/26 11:53:54;;;;;;;4.93;1.87;;;47.70;16.00;;;;;;5110536;28;20524;-66
2021/09/26 11:56:24;;;;;;;6.63;2.57;;;48.00;15.40;;;;;;5110374;28;20518;-66
2021/09/26 11:59:00;;;;;;;3.37;1.90;;;46.40;15.10;;;;;;5104369;28;20436;-67
2021/09/26 12:01:37;;;;;;;7.63;2.60;;;44.40;16.60;;;;;;5086179;28;20521;-69
2021/09/26 12:04:09;;;;;;;12.50;3.70;;;42.60;17.70;;;;;;5107652;28;20499;-67
2021/09/26 12:06:37;;;;;;;5.07;2.50;;;41.00;18.30;;;;;;5095694;28;20442;-67
2021/09/26 12:09:06;;;;;;;6.73;2.80;;;39.70;19.60;;;;;;5108636;28;20430;-66
2021/09/26 12:11:45;;;;;;;10.47;6.80;;;38.50;20.60;;;;;;5108433;28;20513;-66
2021/09/26 12:14:12;;;;;;;4.80;4.27;;;37.30;21.60;;;;;;5108810;28;20483;-66
2021/09/26 12:16:39;;;;;;;8.43;3.80;;;36.20;23.00;;;;;;5101729;28;20435;-66
2021/09/26 12:19:07;;;;;;;6.57;3.50;;;35.40;24.50;;;;;;5096778;28;20462;-66
2021/09/26 12:21:35;;;;;;;6.73;4.20;;;34.70;25.80;;;;;;5101328;28;20442;-66
2021/09/26 12:24:06;;;;;;;7.83;4.57;;;34.10;27.50;;;;;;5094843;28;21618;-66
2021/09/26 12:26:36;;;;;;;9.33;4.90;;;33.70;28.90;;;;;;5108378;28;20435;-66
2021/09/26 12:29:12;;;;;;;6.03;5.43;;;33.30;29.70;;;;;;5108731;28;20435;-66
2021/09/26 12:31:43;;;;;;;9.67;4.73;;;33.00;31.20;;;;;;5107408;28;20474;-67
2021/09/26 12:34:22;;;;;;;6.70;4.77;;;32.80;31.80;;;;;;5112038;28;20761;-66
2021/09/26 12:36:51;;;;;;;6.23;5.07;;;32.60;32.40;;;;;;5099430;28;20478;-67
2021/09/26 12:39:34;;;;;;;7.30;5.67;;;32.70;33.50;;;;;;5110202;28;20468;-66
2021/09/26 12:42:01;;;;;;;6.40;5.80;;;32.90;33.00;;;;;;5112509;28;20482;-68
2021/09/26 12:44:33;;;;;;;9.53;6.10;;;33.30;32.00;;;;;;5103178;28;20835;-67
2021/09/26 12:47:06;;;;;;;8.97;6.07;;;33.50;31.50;;;;;;5096912;28;20442;-65
2021/09/26 12:49:36;;;;;;;7.40;5.77;;;33.60;30.90;;;;;;5108767;28;20839;-66
2021/09/26 12:52:08;;;;;;;6.53;5.93;;;33.30;30.40;;;;;;5112037;28;20462;-66
2021/09/26 12:54:40;;;;;;;8.10;6.00;;;32.90;31.10;;;;;;5112498;28;20430;-68
2021/09/26 12:57:12;;;;;;;6.17;5.40;;;32.40;31.20;;;;;;5107886;28;20490;-65
2021/09/26 12:59:41;;;;;;;7.80;5.53;;;32.00;32.20;;;;;;5112427;28;20437;-66
2021/09/26 13:02:17;;;;;;;5.43;4.90;;;31.50;33.40;;;;;;5112490;28;20452;-66
2021/09/26 13:04:58;;;;;;;9.07;5.90;;;31.20;33.50;;;;;;5095008;28;20450;-66
2021/09/26 13:07:28;;;;;;;6.83;6.13;;;30.80;34.60;;;;;;5111626;28;20430;-66
2021/09/26 13:09:59;;;;;;;7.10;6.00;;;30.50;35.60;;;;;;5096772;28;20444;-65
2021/09/26 13:12:29;;;;;;;8.93;5.87;;;30.10;36.10;;;;;;5093965;28;20481;-66
2021/09/26 13:15:14;;;;;;;8.43;6.70;;;29.90;36.70;;;;;;5107487;28;20441;-65
2021/09/26 13:17:43;;;;;;;7.30;5.33;;;29.60;37.80;;;;;;5112068;28;20537;-65
2021/09/26 13:20:28;;;;;;;7.77;6.77;;;29.40;38.30;;;;;;5111117;28;20525;-65